sensor_id;sensor_type;location;lat;lon;timestamp;P1;durP1;ratioP1;P2;durP2;ratioP2
74259;SDS011;62630;55.874;37.516;2022-11-30T00:02:15;19.55;;;7.60;;
74259;SDS011;62630;55.874;37.516;2022-11-30T00:04:41;19.65;;;8.82;;
74259;SDS011;62630;55.874;37.516;2022-11-30T00:07:06;13.88;;;7.35;;
74259;SDS011;62630;55.874;37.516;2022-11-30T00:09:32;22.35;;;8.10;;
74259;SDS011;62630;55.874;37.516;2022-11-30T00:11:57;17.77;;;8.52;;
74259;SDS011;62630;55.874;37.516;2022-11-30T00:14:23;16.63;;;8.07;;
74259;SDS011;62630;55.874;37.516;2022-11-30T00:16:48;18.75;;;10.30;;
74259;SDS011;62630;55.874;37.516;2022-11-30T00:19:14;17.92;;;9.25;;
74259;SDS011;62630;55.874;37.516;2022-11-30T00:21:39;17.02;;;8.55;;
74259;SDS011;62630;55.874;37.516;2022-11-30T00:24:05;20.23;;;9.45;;
74259;SDS011;62630;55.874;37.516;2022-11-30T00:26:31;17.80;;;9.10;;
74259;SDS011;62630;55.874;37.516;2022-11-30T00:28:56;18.30;;;8.13;;
74259;SDS011;62630;55.874;37.516;2022-11-30T00:31:22;23.92;;;8.95;;
74259;SDS011;62630;55.874;37.516;2022-11-30T00:33:48;20.40;;;8.38;;
74259;SDS011;62630;55.874;37.516;2022-11-30T00:36:15;21.77;;;8.73;;
74259;SDS011;62630;55.874;37.516;2022-11-30T00:38:42;23.00;;;10.88;;
74259;SDS011;62630;55.874;37.516;2022-11-30T00:41:09;21.95;;;8.27;;
74259;SDS011;62630;55.874;37.516;2022-11-30T00:43:35;16.55;;;8.18;;
74259;SDS011;62630;55.874;37.516;2022-11-30T00:46:01;21.08;;;8.23;;
74259;SDS011;62630;55.874;37.516;2022-11-30T00:48:27;22.08;;;8.05;;
74259;SDS011;62630;55.874;37.516;2022-11-30T00:50:52;21.52;;;8.20;;
74259;SDS011;62630;55.874;37.516;2022-11-30T00:53:18;16.10;;;8.23;;
74259;SDS011;62630;55.874;37.516;2022-11-30T00:55:44;22.48;;;8.95;;
74259;SDS011;62630;55.874;37.516;2022-11-30T00:58:11;19.60;;;8.07;;
74259;SDS011;62630;55.874;37.516;2022-11-30T01:00:36;19.85;;;8.68;;
74259;SDS011;62630;55.874;37.516;2022-11-30T01:03:02;20.08;;;8.70;;
74259;SDS011;62630;55.874;37.516;2022-11-30T01:05:28;18.50;;;7.88;;
74259;SDS011;62630;55.874;37.516;2022-11-30T01:07:54;14.52;;;7.00;;
74259;SDS011;62630;55.874;37.516;2022-11-30T01:10:19;18.80;;;8.98;;
74259;SDS011;62630;55.874;37.516;2022-11-30T01:12:47;20.30;;;8.65;;
74259;SDS011;62630;55.874;37.516;2022-11-30T01:15:13;15.02;;;7.95;;
74259;SDS011;62630;55.874;37.516;2022-11-30T01:17:38;18.88;;;8.95;;
74259;SDS011;62630;55.874;37.516;2022-11-30T01:20:05;17.60;;;8.20;;
74259;SDS011;62630;55.874;37.516;2022-11-30T01:22:32;16.45;;;7.97;;
74259;SDS011;62630;55.874;37.516;2022-11-30T01:24:58;16.27;;;7.32;;
74259;SDS011;62630;55.874;37.516;2022-11-30T01:27:23;20.05;;;8.27;;
74259;SDS011;62630;55.874;37.516;2022-11-30T01:29:49;17.88;;;8.98;;
74259;SDS011;62630;55.874;37.516;2022-11-30T01:32:14;20.92;;;9.05;;
74259;SDS011;62630;55.874;37.516;2022-11-30T01:34:40;21.08;;;8.82;;
74259;SDS011;62630;55.874;37.516;2022-11-30T01:37:05;19.73;;;8.65;;
74259;SDS011;62630;55.874;37.516;2022-11-30T01:39:31;19.83;;;8.35;;
74259;SDS011;62630;55.874;37.516;2022-11-30T01:41:56;25.67;;;9.30;;
74259;SDS011;62630;55.874;37.516;2022-11-30T01:46:55;19.35;;;9.07;;
74259;SDS011;62630;55.874;37.516;2022-11-30T01:52:12;19.08;;;8.82;;
74259;SDS011;62630;55.874;37.516;2022-11-30T01:54:57;16.70;;;8.02;;
74259;SDS011;62630;55.874;37.516;2022-11-30T01:57:33;16.60;;;7.93;;
74259;SDS011;62630;55.874;37.516;2022-11-30T02:00:04;16.63;;;8.23;;
74259;SDS011;62630;55.874;37.516;2022-11-30T02:05:17;17.38;;;8.55;;
74259;SDS011;62630;55.874;37.516;2022-11-30T02:07:45;24.70;;;9.70;;
74259;SDS011;62630;55.874;37.516;2022-11-30T02:10:14;20.73;;;8.68;;
74259;SDS011;62630;55.874;37.516;2022-11-30T02:12:48;28.63;;;9.40;;
74259;SDS011;62630;55.874;37.516;2022-11-30T02:15:21;14.48;;;9.15;;
74259;SDS011;62630;55.874;37.516;2022-11-30T02:17:55;18.13;;;8.93;;
74259;SDS011;62630;55.874;37.516;2022-11-30T02:29:11;21.60;;;9.15;;
74259;SDS011;62630;55.874;37.516;2022-11-30T02:31:54;17.77;;;8.60;;
74259;SDS011;62630;55.874;37.516;2022-11-30T02:34:29;16.42;;;8.65;;
74259;SDS011;62630;55.874;37.516;2022-11-30T02:36:57;20.45;;;8.85;;
74259;SDS011;62630;55.874;37.516;2022-11-30T02:39:24;17.95;;;9.57;;
74259;SDS011;62630;55.874;37.516;2022-11-30T02:41:50;20.50;;;9.73;;
74259;SDS011;62630;55.874;37.516;2022-11-30T02:44:16;17.15;;;9.32;;
74259;SDS011;62630;55.874;37.516;2022-11-30T02:46:50;17.90;;;8.38;;
74259;SDS011;62630;55.874;37.516;2022-11-30T02:52:05;16.45;;;9.30;;
74259;SDS011;62630;55.874;37.516;2022-11-30T02:54:33;17.08;;;8.85;;
74259;SDS011;62630;55.874;37.516;2022-11-30T02:56:58;17.98;;;8.57;;
74259;SDS011;62630;55.874;37.516;2022-11-30T02:59:24;19.10;;;9.02;;
74259;SDS011;62630;55.874;37.516;2022-11-30T03:01:49;23.48;;;9.60;;
74259;SDS011;62630;55.874;37.516;2022-11-30T03:04:15;21.85;;;9.38;;
74259;SDS011;62630;55.874;37.516;2022-11-30T03:06:41;20.67;;;8.77;;
74259;SDS011;62630;55.874;37.516;2022-11-30T03:09:06;18.92;;;8.80;;
74259;SDS011;62630;55.874;37.516;2022-11-30T03:11:32;16.30;;;8.55;;
74259;SDS011;62630;55.874;37.516;2022-11-30T03:13:58;21.75;;;9.15;;
74259;SDS011;62630;55.874;37.516;2022-11-30T03:16:23;15.50;;;7.88;;
74259;SDS011;62630;55.874;37.516;2022-11-30T03:18:49;21.33;;;9.27;;
74259;SDS011;62630;55.874;37.516;2022-11-30T03:21:14;20.63;;;9.20;;
74259;SDS011;62630;55.874;37.516;2022-11-30T03:23:40;14.95;;;7.80;;
74259;SDS011;62630;55.874;37.516;2022-11-30T03:26:06;18.52;;;8.63;;
74259;SDS011;62630;55.874;37.516;2022-11-30T03:28:33;18.40;;;7.82;;
74259;SDS011;62630;55.874;37.516;2022-11-30T03:30:59;18.65;;;7.75;;
74259;SDS011;62630;55.874;37.516;2022-11-30T03:33:26;18.90;;;8.60;;
74259;SDS011;62630;55.874;37.516;2022-11-30T03:36:02;17.45;;;8.48;;
74259;SDS011;62630;55.874;37.516;2022-11-30T03:38:29;21.58;;;8.95;;
74259;SDS011;62630;55.874;37.516;2022-11-30T03:41:05;18.83;;;8.50;;
74259;SDS011;62630;55.874;37.516;2022-11-30T03:43:33;20.02;;;8.88;;
74259;SDS011;62630;55.874;37.516;2022-11-30T03:45:58;16.73;;;8.52;;
74259;SDS011;62630;55.874;37.516;2022-11-30T03:48:24;16.58;;;9.07;;
74259;SDS011;62630;55.874;37.516;2022-11-30T03:50:50;18.02;;;7.95;;
74259;SDS011;62630;55.874;37.516;2022-11-30T03:53:16;17.50;;;8.70;;
74259;SDS011;62630;55.874;37.516;2022-11-30T03:55:42;20.73;;;7.90;;
74259;SDS011;62630;55.874;37.516;2022-11-30T03:58:07;25.00;;;9.35;;
74259;SDS011;62630;55.874;37.516;2022-11-30T04:00:33;19.38;;;8.60;;
74259;SDS011;62630;55.874;37.516;2022-11-30T04:03:00;22.73;;;8.65;;
74259;SDS011;62630;55.874;37.516;2022-11-30T04:05:25;24.27;;;9.75;;
74259;SDS011;62630;55.874;37.516;2022-11-30T04:07:51;18.48;;;8.57;;
74259;SDS011;62630;55.874;37.516;2022-11-30T04:10:16;20.17;;;8.98;;
74259;SDS011;62630;55.874;37.516;2022-11-30T04:12:42;21.05;;;8.75;;
74259;SDS011;62630;55.874;37.516;2022-11-30T04:15:08;16.92;;;8.13;;
74259;SDS011;62630;55.874;37.516;2022-11-30T04:17:35;18.33;;;8.10;;
74259;SDS011;62630;55.874;37.516;2022-11-30T04:20:01;21.50;;;8.38;;
74259;SDS011;62630;55.874;37.516;2022-11-30T04:22:26;20.75;;;9.32;;
74259;SDS011;62630;55.874;37.516;2022-11-30T04:24:52;19.45;;;8.10;;
74259;SDS011;62630;55.874;37.516;2022-11-30T04:27:17;20.52;;;8.02;;
74259;SDS011;62630;55.874;37.516;2022-11-30T04:29:43;17.88;;;8.02;;
74259;SDS011;62630;55.874;37.516;2022-11-30T04:32:08;19.73;;;8.68;;
74259;SDS011;62630;55.874;37.516;2022-11-30T04:34:34;17.98;;;8.55;;
74259;SDS011;62630;55.874;37.516;2022-11-30T04:36:59;21.60;;;8.82;;
74259;SDS011;62630;55.874;37.516;2022-11-30T04:39:25;19.00;;;9.23;;
74259;SDS011;62630;55.874;37.516;2022-11-30T04:41:50;16.13;;;8.52;;
74259;SDS011;62630;55.874;37.516;2022-11-30T04:44:16;22.08;;;9.70;;
74259;SDS011;62630;55.874;37.516;2022-11-30T04:46:41;22.70;;;10.07;;
74259;SDS011;62630;55.874;37.516;2022-11-30T04:49:07;21.83;;;9.57;;
74259;SDS011;62630;55.874;37.516;2022-11-30T04:51:32;17.40;;;8.27;;
74259;SDS011;62630;55.874;37.516;2022-11-30T04:53:58;22.73;;;8.40;;
74259;SDS011;62630;55.874;37.516;2022-11-30T04:56:23;18.23;;;8.77;;
74259;SDS011;62630;55.874;37.516;2022-11-30T04:58:49;21.20;;;9.32;;
74259;SDS011;62630;55.874;37.516;2022-11-30T05:01:14;19.23;;;8.30;;
74259;SDS011;62630;55.874;37.516;2022-11-30T05:03:40;19.55;;;8.75;;
74259;SDS011;62630;55.874;37.516;2022-11-30T05:06:05;20.27;;;9.35;;
74259;SDS011;62630;55.874;37.516;2022-11-30T05:08:31;19.33;;;8.68;;
74259;SDS011;62630;55.874;37.516;2022-11-30T05:10:56;16.52;;;8.32;;
74259;SDS011;62630;55.874;37.516;2022-11-30T05:13:22;23.60;;;10.07;;
74259;SDS011;62630;55.874;37.516;2022-11-30T05:15:49;20.48;;;9.45;;
74259;SDS011;62630;55.874;37.516;2022-11-30T05:18:15;21.75;;;9.60;;
74259;SDS011;62630;55.874;37.516;2022-11-30T05:20:45;18.17;;;8.82;;
74259;SDS011;62630;55.874;37.516;2022-11-30T05:23:12;24.50;;;9.70;;
74259;SDS011;62630;55.874;37.516;2022-11-30T05:25:37;26.13;;;10.10;;
74259;SDS011;62630;55.874;37.516;2022-11-30T05:30:38;26.73;;;9.60;;
74259;SDS011;62630;55.874;37.516;2022-11-30T05:33:05;24.92;;;9.95;;
74259;SDS011;62630;55.874;37.516;2022-11-30T05:35:31;26.77;;;10.75;;
74259;SDS011;62630;55.874;37.516;2022-11-30T05:37:58;23.13;;;9.07;;
74259;SDS011;62630;55.874;37.516;2022-11-30T05:40:25;21.65;;;9.43;;
74259;SDS011;62630;55.874;37.516;2022-11-30T05:42:55;24.90;;;10.15;;
74259;SDS011;62630;55.874;37.516;2022-11-30T05:45:22;18.33;;;9.30;;
74259;SDS011;62630;55.874;37.516;2022-11-30T05:47:48;30.20;;;11.07;;
74259;SDS011;62630;55.874;37.516;2022-11-30T05:50:15;23.58;;;8.82;;
74259;SDS011;62630;55.874;37.516;2022-11-30T05:52:41;23.13;;;10.10;;
74259;SDS011;62630;55.874;37.516;2022-11-30T05:55:07;22.77;;;9.55;;
74259;SDS011;62630;55.874;37.516;2022-11-30T05:57:38;25.90;;;10.55;;
74259;SDS011;62630;55.874;37.516;2022-11-30T06:00:05;25.38;;;11.00;;
74259;SDS011;62630;55.874;37.516;2022-11-30T06:04:58;23.85;;;8.80;;
74259;SDS011;62630;55.874;37.516;2022-11-30T06:07:23;23.70;;;10.20;;
74259;SDS011;62630;55.874;37.516;2022-11-30T06:09:49;25.27;;;9.60;;
74259;SDS011;62630;55.874;37.516;2022-11-30T06:12:14;21.42;;;9.40;;
74259;SDS011;62630;55.874;37.516;2022-11-30T06:14:40;25.35;;;10.60;;
74259;SDS011;62630;55.874;37.516;2022-11-30T06:17:05;25.98;;;11.07;;
74259;SDS011;62630;55.874;37.516;2022-11-30T06:19:31;23.13;;;10.57;;
74259;SDS011;62630;55.874;37.516;2022-11-30T06:21:59;30.88;;;10.85;;
74259;SDS011;62630;55.874;37.516;2022-11-30T06:24:25;25.33;;;9.95;;
74259;SDS011;62630;55.874;37.516;2022-11-30T06:26:50;26.05;;;10.48;;
74259;SDS011;62630;55.874;37.516;2022-11-30T06:29:16;29.08;;;9.52;;
74259;SDS011;62630;55.874;37.516;2022-11-30T06:31:41;26.10;;;10.25;;
74259;SDS011;62630;55.874;37.516;2022-11-30T06:34:07;28.75;;;11.07;;
74259;SDS011;62630;55.874;37.516;2022-11-30T06:36:32;29.70;;;11.45;;
74259;SDS011;62630;55.874;37.516;2022-11-30T06:38:58;26.92;;;11.38;;
74259;SDS011;62630;55.874;37.516;2022-11-30T06:41:24;28.60;;;10.23;;
74259;SDS011;62630;55.874;37.516;2022-11-30T06:43:50;35.40;;;11.57;;
74259;SDS011;62630;55.874;37.516;2022-11-30T06:46:23;32.17;;;11.38;;
74259;SDS011;62630;55.874;37.516;2022-11-30T06:48:49;36.25;;;12.25;;
74259;SDS011;62630;55.874;37.516;2022-11-30T06:51:17;34.13;;;13.95;;
74259;SDS011;62630;55.874;37.516;2022-11-30T06:53:43;30.38;;;11.35;;
74259;SDS011;62630;55.874;37.516;2022-11-30T06:56:10;30.42;;;12.52;;
74259;SDS011;62630;55.874;37.516;2022-11-30T06:58:36;26.25;;;11.40;;
74259;SDS011;62630;55.874;37.516;2022-11-30T07:01:04;29.83;;;12.88;;
74259;SDS011;62630;55.874;37.516;2022-11-30T07:03:30;34.20;;;13.27;;
74259;SDS011;62630;55.874;37.516;2022-11-30T07:05:57;31.98;;;12.45;;
74259;SDS011;62630;55.874;37.516;2022-11-30T07:08:29;34.97;;;13.25;;
74259;SDS011;62630;55.874;37.516;2022-11-30T07:10:55;37.00;;;13.23;;
74259;SDS011;62630;55.874;37.516;2022-11-30T07:13:23;28.48;;;11.55;;
74259;SDS011;62630;55.874;37.516;2022-11-30T07:15:49;37.50;;;12.70;;
74259;SDS011;62630;55.874;37.516;2022-11-30T07:18:14;42.25;;;14.10;;
74259;SDS011;62630;55.874;37.516;2022-11-30T07:20:40;35.22;;;13.30;;
74259;SDS011;62630;55.874;37.516;2022-11-30T07:23:06;33.40;;;13.10;;
74259;SDS011;62630;55.874;37.516;2022-11-30T07:25:52;38.45;;;13.75;;
74259;SDS011;62630;55.874;37.516;2022-11-30T07:28:31;39.53;;;13.27;;
74259;SDS011;62630;55.874;37.516;2022-11-30T07:31:01;38.10;;;12.65;;
74259;SDS011;62630;55.874;37.516;2022-11-30T07:33:36;40.35;;;14.60;;
74259;SDS011;62630;55.874;37.516;2022-11-30T07:36:03;34.00;;;13.52;;
74259;SDS011;62630;55.874;37.516;2022-11-30T07:38:30;36.53;;;14.70;;
74259;SDS011;62630;55.874;37.516;2022-11-30T07:40:56;36.00;;;14.15;;
74259;SDS011;62630;55.874;37.516;2022-11-30T07:43:22;44.78;;;14.65;;
74259;SDS011;62630;55.874;37.516;2022-11-30T07:45:51;39.90;;;13.95;;
74259;SDS011;62630;55.874;37.516;2022-11-30T07:48:17;36.10;;;13.80;;
74259;SDS011;62630;55.874;37.516;2022-11-30T07:50:43;34.95;;;13.32;;
74259;SDS011;62630;55.874;37.516;2022-11-30T07:53:08;42.08;;;14.68;;
74259;SDS011;62630;55.874;37.516;2022-11-30T07:55:33;35.20;;;15.45;;
74259;SDS011;62630;55.874;37.516;2022-11-30T07:57:59;47.20;;;15.73;;
74259;SDS011;62630;55.874;37.516;2022-11-30T08:00:24;37.85;;;12.77;;
74259;SDS011;62630;55.874;37.516;2022-11-30T08:02:50;42.75;;;15.68;;
74259;SDS011;62630;55.874;37.516;2022-11-30T08:05:16;42.10;;;14.80;;
74259;SDS011;62630;55.874;37.516;2022-11-30T08:07:41;40.35;;;15.45;;
74259;SDS011;62630;55.874;37.516;2022-11-30T08:10:07;45.90;;;15.50;;
74259;SDS011;62630;55.874;37.516;2022-11-30T08:12:33;41.47;;;15.52;;
74259;SDS011;62630;55.874;37.516;2022-11-30T08:14:58;40.58;;;15.18;;
74259;SDS011;62630;55.874;37.516;2022-11-30T08:17:24;40.33;;;14.05;;
74259;SDS011;62630;55.874;37.516;2022-11-30T08:19:49;48.15;;;15.93;;
74259;SDS011;62630;55.874;37.516;2022-11-30T08:22:15;36.67;;;14.05;;
74259;SDS011;62630;55.874;37.516;2022-11-30T08:24:40;32.60;;;13.80;;
74259;SDS011;62630;55.874;37.516;2022-11-30T08:27:06;37.50;;;15.07;;
74259;SDS011;62630;55.874;37.516;2022-11-30T08:29:31;37.40;;;12.60;;
74259;SDS011;62630;55.874;37.516;2022-11-30T08:31:57;31.80;;;12.75;;
74259;SDS011;62630;55.874;37.516;2022-11-30T08:34:22;32.92;;;12.32;;
74259;SDS011;62630;55.874;37.516;2022-11-30T08:36:48;35.95;;;13.38;;
74259;SDS011;62630;55.874;37.516;2022-11-30T08:39:13;39.17;;;13.75;;
74259;SDS011;62630;55.874;37.516;2022-11-30T08:41:39;33.65;;;12.88;;
74259;SDS011;62630;55.874;37.516;2022-11-30T08:44:05;28.33;;;12.25;;
74259;SDS011;62630;55.874;37.516;2022-11-30T08:46:30;31.73;;;12.00;;
74259;SDS011;62630;55.874;37.516;2022-11-30T08:48:56;28.52;;;11.95;;
74259;SDS011;62630;55.874;37.516;2022-11-30T08:51:25;33.33;;;12.68;;
74259;SDS011;62630;55.874;37.516;2022-11-30T08:53:54;34.45;;;13.75;;
74259;SDS011;62630;55.874;37.516;2022-11-30T08:56:20;33.13;;;14.23;;
74259;SDS011;62630;55.874;37.516;2022-11-30T08:58:47;32.25;;;13.80;;
74259;SDS011;62630;55.874;37.516;2022-11-30T09:01:18;37.47;;;15.05;;
74259;SDS011;62630;55.874;37.516;2022-11-30T09:03:51;38.85;;;13.60;;
74259;SDS011;62630;55.874;37.516;2022-11-30T09:06:19;27.48;;;12.55;;
74259;SDS011;62630;55.874;37.516;2022-11-30T09:08:52;31.55;;;13.82;;
74259;SDS011;62630;55.874;37.516;2022-11-30T09:11:22;27.80;;;12.48;;
74259;SDS011;62630;55.874;37.516;2022-11-30T09:13:58;31.48;;;12.23;;
74259;SDS011;62630;55.874;37.516;2022-11-30T09:16:29;23.52;;;10.93;;
74259;SDS011;62630;55.874;37.516;2022-11-30T09:18:54;23.10;;;10.90;;
74259;SDS011;62630;55.874;37.516;2022-11-30T09:21:21;43.25;;;13.27;;
74259;SDS011;62630;55.874;37.516;2022-11-30T09:23:48;25.50;;;12.07;;
74259;SDS011;62630;55.874;37.516;2022-11-30T09:26:15;29.15;;;12.70;;
74259;SDS011;62630;55.874;37.516;2022-11-30T09:28:42;26.92;;;12.18;;
74259;SDS011;62630;55.874;37.516;2022-11-30T09:31:12;28.85;;;13.23;;
74259;SDS011;62630;55.874;37.516;2022-11-30T09:33:40;32.85;;;12.05;;
74259;SDS011;62630;55.874;37.516;2022-11-30T09:36:07;32.30;;;12.65;;
74259;SDS011;62630;55.874;37.516;2022-11-30T09:38:34;28.60;;;12.68;;
74259;SDS011;62630;55.874;37.516;2022-11-30T09:41:03;25.67;;;12.63;;
74259;SDS011;62630;55.874;37.516;2022-11-30T09:44:00;24.70;;;11.35;;
74259;SDS011;62630;55.874;37.516;2022-11-30T09:46:29;34.75;;;12.70;;
74259;SDS011;62630;55.874;37.516;2022-11-30T09:51:46;29.05;;;11.82;;
74259;SDS011;62630;55.874;37.516;2022-11-30T09:54:20;36.25;;;11.43;;
74259;SDS011;62630;55.874;37.516;2022-11-30T09:59:54;24.63;;;13.13;;
74259;SDS011;62630;55.874;37.516;2022-11-30T10:02:20;28.38;;;12.63;;
74259;SDS011;62630;55.874;37.516;2022-11-30T10:04:51;24.50;;;12.80;;
74259;SDS011;62630;55.874;37.516;2022-11-30T10:07:37;30.88;;;13.93;;
74259;SDS011;62630;55.874;37.516;2022-11-30T10:16:13;24.67;;;11.35;;
74259;SDS011;62630;55.874;37.516;2022-11-30T10:18:51;27.13;;;9.95;;
74259;SDS011;62630;55.874;37.516;2022-11-30T10:27:16;22.20;;;11.00;;
74259;SDS011;62630;55.874;37.516;2022-11-30T10:29:47;26.73;;;11.02;;
74259;SDS011;62630;55.874;37.516;2022-11-30T10:34:44;26.85;;;10.98;;
74259;SDS011;62630;55.874;37.516;2022-11-30T10:37:18;29.17;;;10.63;;
74259;SDS011;62630;55.874;37.516;2022-11-30T10:45:03;28.48;;;11.57;;
74259;SDS011;62630;55.874;37.516;2022-11-30T10:47:37;25.85;;;11.38;;
74259;SDS011;62630;55.874;37.516;2022-11-30T10:50:14;29.17;;;11.20;;
74259;SDS011;62630;55.874;37.516;2022-11-30T10:52:44;26.50;;;10.73;;
74259;SDS011;62630;55.874;37.516;2022-11-30T10:55:57;28.42;;;12.35;;
74259;SDS011;62630;55.874;37.516;2022-11-30T10:58:11;24.52;;;10.95;;
74259;SDS011;62630;55.874;37.516;2022-11-30T11:00:49;26.73;;;11.23;;
74259;SDS011;62630;55.874;37.516;2022-11-30T11:03:23;26.13;;;12.05;;
74259;SDS011;62630;55.874;37.516;2022-11-30T11:06:01;22.70;;;11.35;;
74259;SDS011;62630;55.874;37.516;2022-11-30T11:08:29;27.10;;;12.77;;
74259;SDS011;62630;55.874;37.516;2022-11-30T11:10:55;27.23;;;13.05;;
74259;SDS011;62630;55.874;37.516;2022-11-30T11:16:11;29.23;;;12.10;;
74259;SDS011;62630;55.874;37.516;2022-11-30T11:18:54;27.17;;;11.35;;
74259;SDS011;62630;55.874;37.516;2022-11-30T11:21:21;28.70;;;11.55;;
74259;SDS011;62630;55.874;37.516;2022-11-30T11:23:49;28.55;;;12.95;;
74259;SDS011;62630;55.874;37.516;2022-11-30T11:28:49;28.33;;;12.13;;
74259;SDS011;62630;55.874;37.516;2022-11-30T11:33:49;23.27;;;11.98;;
74259;SDS011;62630;55.874;37.516;2022-11-30T11:36:23;33.38;;;13.48;;
74259;SDS011;62630;55.874;37.516;2022-11-30T11:38:50;24.90;;;11.82;;
74259;SDS011;62630;55.874;37.516;2022-11-30T11:41:32;26.33;;;13.05;;
74259;SDS011;62630;55.874;37.516;2022-11-30T11:46:25;25.17;;;11.90;;
74259;SDS011;62630;55.874;37.516;2022-11-30T11:48:56;25.40;;;12.15;;
74259;SDS011;62630;55.874;37.516;2022-11-30T11:51:29;27.83;;;11.43;;
74259;SDS011;62630;55.874;37.516;2022-11-30T11:56:44;23.50;;;12.50;;
74259;SDS011;62630;55.874;37.516;2022-11-30T12:10:20;25.90;;;11.50;;
74259;SDS011;62630;55.874;37.516;2022-11-30T12:12:52;31.92;;;13.48;;
74259;SDS011;62630;55.874;37.516;2022-11-30T12:15:19;23.77;;;13.27;;
74259;SDS011;62630;55.874;37.516;2022-11-30T12:26:35;26.02;;;12.23;;
74259;SDS011;62630;55.874;37.516;2022-11-30T12:31:58;27.80;;;12.23;;
74259;SDS011;62630;55.874;37.516;2022-11-30T12:34:43;25.55;;;11.93;;
74259;SDS011;62630;55.874;37.516;2022-11-30T12:40:12;32.47;;;13.13;;
74259;SDS011;62630;55.874;37.516;2022-11-30T12:42:51;29.70;;;13.98;;
74259;SDS011;62630;55.874;37.516;2022-11-30T12:48:31;31.35;;;13.60;;
74259;SDS011;62630;55.874;37.516;2022-11-30T12:51:24;34.65;;;13.35;;
74259;SDS011;62630;55.874;37.516;2022-11-30T12:56:48;30.83;;;13.15;;
74259;SDS011;62630;55.874;37.516;2022-11-30T12:59:33;31.77;;;12.40;;
74259;SDS011;62630;55.874;37.516;2022-11-30T13:05:07;31.05;;;12.60;;
74259;SDS011;62630;55.874;37.516;2022-11-30T13:12:53;34.72;;;13.02;;
74259;SDS011;62630;55.874;37.516;2022-11-30T13:15:22;32.65;;;14.35;;
74259;SDS011;62630;55.874;37.516;2022-11-30T13:17:51;26.70;;;13.52;;
74259;SDS011;62630;55.874;37.516;2022-11-30T13:20:27;34.95;;;13.13;;
74259;SDS011;62630;55.874;37.516;2022-11-30T13:23:05;33.85;;;13.68;;
74259;SDS011;62630;55.874;37.516;2022-11-30T13:31:18;33.22;;;14.52;;
74259;SDS011;62630;55.874;37.516;2022-11-30T13:36:25;32.80;;;14.60;;
74259;SDS011;62630;55.874;37.516;2022-11-30T13:39:41;32.55;;;14.43;;
74259;SDS011;62630;55.874;37.516;2022-11-30T13:41:48;35.53;;;14.07;;
74259;SDS011;62630;55.874;37.516;2022-11-30T13:46:56;30.95;;;14.05;;
74259;SDS011;62630;55.874;37.516;2022-11-30T13:49:32;29.88;;;14.43;;
74259;SDS011;62630;55.874;37.516;2022-11-30T13:51:59;31.88;;;14.95;;
74259;SDS011;62630;55.874;37.516;2022-11-30T13:54:42;35.70;;;15.45;;
74259;SDS011;62630;55.874;37.516;2022-11-30T13:57:16;33.63;;;15.73;;
74259;SDS011;62630;55.874;37.516;2022-11-30T14:00:00;33.10;;;15.43;;
74259;SDS011;62630;55.874;37.516;2022-11-30T14:02:48;30.35;;;14.10;;
74259;SDS011;62630;55.874;37.516;2022-11-30T14:13:34;26.92;;;13.30;;
74259;SDS011;62630;55.874;37.516;2022-11-30T14:18:51;31.10;;;13.27;;
74259;SDS011;62630;55.874;37.516;2022-11-30T14:21:22;32.42;;;14.48;;
74259;SDS011;62630;55.874;37.516;2022-11-30T14:23:57;28.10;;;13.85;;
74259;SDS011;62630;55.874;37.516;2022-11-30T14:26:37;30.58;;;14.98;;
74259;SDS011;62630;55.874;37.516;2022-11-30T14:29:34;35.45;;;14.70;;
74259;SDS011;62630;55.874;37.516;2022-11-30T14:32:09;35.85;;;13.95;;
74259;SDS011;62630;55.874;37.516;2022-11-30T14:34:44;32.50;;;14.10;;
74259;SDS011;62630;55.874;37.516;2022-11-30T14:39:49;39.78;;;13.77;;
74259;SDS011;62630;55.874;37.516;2022-11-30T14:42:25;37.63;;;14.60;;
74259;SDS011;62630;55.874;37.516;2022-11-30T14:44:55;35.92;;;13.73;;
74259;SDS011;62630;55.874;37.516;2022-11-30T14:47:27;31.48;;;14.70;;
74259;SDS011;62630;55.874;37.516;2022-11-30T14:49:58;32.30;;;14.90;;
74259;SDS011;62630;55.874;37.516;2022-11-30T14:58:29;29.50;;;13.93;;
74259;SDS011;62630;55.874;37.516;2022-11-30T15:01:27;30.75;;;12.63;;
74259;SDS011;62630;55.874;37.516;2022-11-30T15:04:05;34.90;;;13.10;;
74259;SDS011;62630;55.874;37.516;2022-11-30T15:06:39;31.98;;;12.50;;
74259;SDS011;62630;55.874;37.516;2022-11-30T15:09:15;28.30;;;12.32;;
74259;SDS011;62630;55.874;37.516;2022-11-30T15:12:07;25.35;;;12.77;;
74259;SDS011;62630;55.874;37.516;2022-11-30T15:18:16;24.92;;;12.10;;
74259;SDS011;62630;55.874;37.516;2022-11-30T15:20:49;30.73;;;11.40;;
74259;SDS011;62630;55.874;37.516;2022-11-30T15:23:25;30.70;;;12.55;;
74259;SDS011;62630;55.874;37.516;2022-11-30T15:26:00;31.40;;;13.43;;
74259;SDS011;62630;55.874;37.516;2022-11-30T15:28:36;30.35;;;12.57;;
74259;SDS011;62630;55.874;37.516;2022-11-30T15:31:06;31.20;;;14.60;;
74259;SDS011;62630;55.874;37.516;2022-11-30T15:33:40;45.83;;;14.85;;
74259;SDS011;62630;55.874;37.516;2022-11-30T15:36:14;32.97;;;14.27;;
74259;SDS011;62630;55.874;37.516;2022-11-30T15:38:46;30.95;;;13.63;;
74259;SDS011;62630;55.874;37.516;2022-11-30T15:41:20;28.05;;;12.75;;
74259;SDS011;62630;55.874;37.516;2022-11-30T15:43:52;30.90;;;12.90;;
74259;SDS011;62630;55.874;37.516;2022-11-30T15:46:31;28.75;;;13.77;;
74259;SDS011;62630;55.874;37.516;2022-11-30T15:49:13;29.80;;;14.18;;
74259;SDS011;62630;55.874;37.516;2022-11-30T15:51:47;32.72;;;13.80;;
74259;SDS011;62630;55.874;37.516;2022-11-30T15:57:16;28.65;;;13.25;;
74259;SDS011;62630;55.874;37.516;2022-11-30T16:02:46;32.53;;;13.82;;
74259;SDS011;62630;55.874;37.516;2022-11-30T16:07:54;34.75;;;15.27;;
74259;SDS011;62630;55.874;37.516;2022-11-30T16:10:25;28.77;;;13.48;;
74259;SDS011;62630;55.874;37.516;2022-11-30T16:13:04;31.13;;;13.43;;
74259;SDS011;62630;55.874;37.516;2022-11-30T16:15:36;39.78;;;15.52;;
74259;SDS011;62630;55.874;37.516;2022-11-30T16:20:45;33.40;;;13.63;;
74259;SDS011;62630;55.874;37.516;2022-11-30T16:23:14;35.35;;;14.52;;
74259;SDS011;62630;55.874;37.516;2022-11-30T16:28:10;29.73;;;13.68;;
74259;SDS011;62630;55.874;37.516;2022-11-30T16:30:38;28.20;;;12.48;;
74259;SDS011;62630;55.874;37.516;2022-11-30T16:33:05;33.40;;;13.48;;
74259;SDS011;62630;55.874;37.516;2022-11-30T16:35:56;30.50;;;12.88;;
74259;SDS011;62630;55.874;37.516;2022-11-30T16:38:27;27.40;;;13.10;;
74259;SDS011;62630;55.874;37.516;2022-11-30T16:40:54;29.33;;;12.73;;
74259;SDS011;62630;55.874;37.516;2022-11-30T16:43:34;29.63;;;11.85;;
74259;SDS011;62630;55.874;37.516;2022-11-30T16:46:04;25.27;;;11.88;;
74259;SDS011;62630;55.874;37.516;2022-11-30T16:48:32;27.05;;;11.90;;
74259;SDS011;62630;55.874;37.516;2022-11-30T16:51:00;28.58;;;13.32;;
74259;SDS011;62630;55.874;37.516;2022-11-30T16:53:26;26.63;;;11.98;;
74259;SDS011;62630;55.874;37.516;2022-11-30T16:55:51;28.70;;;13.57;;
74259;SDS011;62630;55.874;37.516;2022-11-30T16:58:17;27.02;;;12.52;;